createdAt,value
2019-06-01T00:02:12.167Z,2.98
2019-06-01T00:04:45.248Z,3.25
2019-06-01T00:07:20.502Z,4.22
2019-06-01T00:09:57.584Z,3.95
2019-06-01T00:12:36.011Z,4.17
2019-06-01T00:15:14.166Z,3.37
2019-06-01T00:17:47.915Z,3.40
2019-06-01T00:20:21.181Z,3.92
2019-06-01T00:22:54.189Z,3.87
2019-06-01T00:25:34.124Z,3.67
2019-06-01T00:28:06.175Z,3.65
2019-06-01T00:30:39.354Z,3.20
2019-06-01T00:33:16.442Z,3.42
2019-06-01T00:35:49.537Z,3.55
2019-06-01T00:38:23.798Z,3.40
2019-06-01T00:40:56.311Z,3.22
2019-06-01T00:43:30.456Z,4.03
2019-06-01T00:46:04.581Z,3.47
2019-06-01T00:48:43.784Z,3.62
2019-06-01T00:52:07.795Z,3.58
2019-06-01T00:54:01.417Z,3.20
2019-06-01T00:56:36.274Z,3.52
2019-06-01T00:59:17.795Z,3.35
2019-06-01T01:01:54.370Z,3.25
2019-06-01T01:04:31.498Z,3.37
2019-06-01T01:07:33.062Z,3.35
2019-06-01T01:10:21.267Z,3.67
2019-06-01T01:13:12.092Z,4.15
2019-06-01T01:15:47.356Z,3.25
2019-06-01T01:18:34.602Z,4.37
2019-06-01T01:21:20.110Z,3.40
2019-06-01T01:23:54.759Z,4.17
2019-06-01T01:26:39.627Z,3.60
2019-06-01T01:29:20.316Z,3.70
2019-06-01T01:31:59.857Z,3.77
2019-06-01T01:34:36.622Z,5.65
2019-06-01T01:37:17.217Z,3.33
2019-06-01T01:39:54.258Z,3.55
2019-06-01T01:42:39.591Z,3.92
2019-06-01T01:45:23.804Z,4.20
2019-06-01T01:48:16.255Z,4.12
2019-06-01T01:51:05.353Z,3.67
2019-06-01T01:53:31.368Z,3.55
2019-06-01T01:56:24.390Z,3.47
2019-06-01T01:59:07.305Z,3.50
2019-06-01T02:02:19.899Z,3.75
2019-06-01T02:05:11.232Z,4.37
2019-06-01T02:07:42.949Z,4.40
2019-06-01T02:10:25.426Z,4.25
2019-06-01T02:13:10.250Z,4.00
2019-06-01T02:15:54.072Z,4.08
2019-06-01T02:18:38.658Z,4.83
2019-06-01T02:21:17.663Z,3.62
2019-06-01T02:23:59.012Z,4.30
2019-06-01T02:26:40.652Z,4.62
2019-06-01T02:29:18.758Z,3.95
2019-06-01T02:32:08.372Z,3.50
2019-06-01T02:34:54.155Z,3.98
2019-06-01T02:37:29.037Z,3.77
2019-06-01T02:40:12.229Z,3.83
2019-06-01T02:42:55.021Z,3.92
2019-06-01T02:45:36.353Z,3.67
2019-06-01T02:48:36.310Z,3.70
2019-06-01T02:51:15.928Z,4.22
2019-06-01T02:53:59.941Z,4.33
2019-06-01T02:56:47.028Z,3.85
2019-06-01T02:59:30.454Z,4.00
2019-06-01T03:02:19.429Z,4.05
2019-06-01T03:05:05.530Z,4.35
2019-06-01T03:07:43.826Z,4.05
2019-06-01T03:10:19.579Z,4.35
2019-06-01T03:13:00.389Z,3.80
2019-06-01T03:15:40.255Z,4.03
2019-06-01T03:18:16.270Z,3.92
2019-06-01T03:21:01.696Z,4.40
2019-06-01T03:23:39.383Z,4.10
2019-06-01T03:26:21.304Z,4.10
2019-06-01T03:29:03.243Z,3.87
2019-06-01T03:31:42.953Z,4.03
2019-06-01T03:34:22.814Z,4.12
2019-06-01T03:37:00.972Z,3.98
2019-06-01T03:39:35.847Z,4.20
2019-06-01T03:42:11.620Z,3.80
2019-06-01T03:44:50.462Z,3.92
2019-06-01T03:47:23.039Z,3.95
2019-06-01T03:49:58.771Z,4.00
2019-06-01T03:52:47.651Z,3.67
2019-06-01T03:55:24.557Z,3.98
2019-06-01T03:58:09.479Z,3.47
2019-06-01T04:00:43.591Z,3.77
2019-06-01T04:05:58.893Z,3.77
2019-06-01T04:08:38.727Z,4.70
2019-06-01T04:11:11.754Z,4.08
2019-06-01T04:13:51.962Z,3.77
2019-06-01T04:16:47.292Z,4.17
2019-06-01T04:19:27.008Z,3.98
2019-06-01T04:22:04.029Z,4.05
2019-06-01T04:24:41.207Z,3.60
2019-06-01T04:27:20.311Z,4.33
2019-06-01T04:30:04.445Z,4.05
2019-06-01T04:32:49.464Z,3.72
2019-06-01T04:35:16.029Z,4.22
2019-06-01T04:37:51.887Z,4.03
2019-06-01T04:40:32.270Z,4.10
2019-06-01T04:43:05.741Z,5.00
2019-06-01T04:45:49.712Z,4.58
2019-06-01T04:48:14.702Z,4.53
2019-06-01T04:50:53.968Z,4.10
2019-06-01T04:53:29.259Z,4.28
2019-06-01T04:56:06.999Z,4.45
2019-06-01T04:58:40.526Z,4.22
2019-06-01T05:01:18.078Z,4.33
2019-06-01T05:03:51.966Z,4.50
2019-06-01T05:06:33.758Z,4.35
2019-06-01T05:09:19.364Z,4.37
2019-06-01T05:12:07.545Z,4.40
2019-06-01T05:14:40.364Z,4.80
2019-06-01T05:17:25.862Z,4.92
2019-06-01T05:20:06.260Z,4.28
2019-06-01T05:22:38.993Z,4.00
2019-06-01T05:25:13.680Z,4.08
2019-06-01T05:27:58.172Z,4.10
2019-06-01T05:30:29.931Z,3.90
2019-06-01T05:33:03.304Z,3.90
2019-06-01T05:35:38.986Z,3.85
2019-06-01T05:38:16.543Z,3.87
2019-06-01T05:40:52.845Z,3.87
2019-06-01T05:43:27.934Z,4.45
2019-06-01T05:46:03.919Z,3.65
2019-06-01T05:48:37.998Z,3.75
2019-06-01T05:51:13.780Z,4.10
2019-06-01T05:53:59.206Z,3.90
2019-06-01T05:56:38.261Z,3.80
2019-06-01T05:59:16.337Z,3.65
2019-06-01T06:02:00.854Z,3.72
2019-06-01T06:04:43.334Z,3.75
2019-06-01T06:07:55.292Z,3.90
2019-06-01T06:10:50.503Z,3.12
2019-06-01T06:13:47.500Z,3.52
2019-06-01T06:17:36.260Z,3.52
2019-06-01T06:41:43.404Z,3.15
2019-06-01T06:45:30.552Z,3.55
2019-06-01T06:49:17.059Z,3.70
2019-06-01T07:10:24.511Z,3.30
2019-06-01T07:12:58.190Z,3.42
2019-06-01T07:15:49.692Z,3.40
2019-06-01T07:18:13.492Z,3.55
2019-06-01T07:21:01.265Z,3.62
2019-06-01T07:23:54.367Z,3.25
2019-06-01T07:27:04.806Z,3.30
2019-06-01T07:29:26.261Z,3.05
2019-06-01T07:32:09.628Z,3.50
2019-06-01T07:35:26.360Z,3.05
2019-06-01T07:37:57.621Z,2.80
2019-06-01T07:40:56.141Z,2.90
2019-06-01T07:43:39.503Z,2.80
2019-06-01T07:46:31.701Z,2.50
2019-06-01T07:49:27.029Z,3.02
2019-06-01T07:52:13.296Z,2.98
2019-06-01T07:54:50.461Z,6.95
2019-06-01T07:57:27.786Z,6.15
2019-06-01T08:00:00.466Z,5.15
2019-06-01T08:02:33.157Z,4.67
2019-06-01T08:05:15.858Z,3.83
2019-06-01T08:07:49.329Z,3.50
2019-06-01T08:10:29.735Z,4.00
2019-06-01T08:13:07.390Z,2.80
2019-06-01T08:16:06.571Z,3.70
2019-06-01T08:18:44.023Z,2.92
2019-06-01T08:21:15.517Z,3.02
2019-06-01T08:23:50.347Z,2.70
2019-06-01T08:26:30.543Z,2.67
2019-06-01T08:29:03.187Z,2.50
2019-06-01T08:31:55.650Z,2.40
2019-06-01T08:34:28.891Z,2.17
2019-06-01T08:37:04.394Z,2.72
2019-06-01T08:39:36.790Z,2.87
2019-06-01T08:42:29.840Z,1.98
2019-06-01T08:45:09.892Z,2.60
2019-06-01T08:47:56.605Z,2.30
2019-06-01T08:50:41.393Z,2.12
2019-06-01T08:53:15.508Z,2.40
2019-06-01T08:55:47.813Z,3.22
2019-06-01T08:58:20.162Z,2.15
2019-06-01T09:00:52.398Z,2.20
2019-06-01T09:03:25.831Z,2.00
2019-06-01T09:05:58.480Z,1.90
2019-06-01T09:08:33.214Z,1.98
2019-06-01T09:11:27.139Z,2.37
2019-06-01T09:14:12.279Z,1.92
2019-06-01T09:16:56.859Z,2.52
2019-06-01T09:19:29.492Z,2.33
2019-06-01T09:22:01.755Z,2.25
2019-06-01T09:24:34.039Z,2.22
2019-06-01T09:27:07.523Z,1.98
2019-06-01T09:29:39.546Z,2.05
2019-06-01T09:32:11.931Z,2.30
2019-06-01T09:34:44.086Z,2.20
2019-06-01T09:37:16.795Z,1.85
2019-06-01T09:39:49.031Z,2.27
2019-06-01T09:42:21.482Z,1.95
2019-06-01T09:44:53.688Z,2.20
2019-06-01T09:47:26.979Z,1.60
2019-06-01T09:49:59.523Z,2.10
2019-06-01T09:52:33.374Z,2.10
2019-06-01T09:55:06.164Z,2.00
2019-06-01T09:57:42.852Z,1.98
2019-06-01T10:00:24.332Z,1.80
2019-06-01T10:03:02.176Z,1.42
2019-06-01T10:09:25.700Z,1.70
2019-06-01T10:12:13.250Z,1.70
2019-06-01T10:14:45.357Z,1.65
2019-06-01T10:17:17.589Z,1.95
2019-06-01T10:19:49.845Z,2.22
2019-06-01T10:22:24.822Z,2.02
2019-06-01T10:24:56.986Z,2.35
2019-06-01T10:27:30.270Z,1.72
2019-06-01T10:30:03.988Z,1.80
2019-06-01T10:32:37.878Z,1.50
2019-06-01T10:35:10.539Z,1.55
2019-06-01T10:37:43.605Z,1.67
2019-06-01T10:40:17.510Z,2.00
2019-06-01T10:42:49.698Z,1.90
2019-06-01T10:45:21.878Z,1.85
2019-06-01T10:47:53.974Z,2.35
2019-06-01T10:50:26.015Z,2.22
2019-06-01T10:53:01.419Z,1.80
2019-06-01T10:55:34.111Z,2.22
2019-06-01T10:58:06.297Z,2.10
2019-06-01T11:00:47.714Z,2.50
2019-06-01T11:03:13.144Z,2.60
2019-06-01T11:05:48.019Z,2.33
2019-06-01T11:08:20.357Z,2.10
2019-06-01T11:10:52.720Z,2.00
2019-06-01T11:13:24.915Z,2.27
2019-06-01T11:15:57.028Z,2.27
2019-06-01T11:18:29.149Z,2.17
2019-06-01T11:21:01.397Z,2.33
2019-06-01T11:23:33.555Z,1.87
2019-06-01T11:26:05.810Z,2.08
2019-06-01T11:28:40.048Z,2.00
2019-06-01T11:31:14.346Z,1.75
2019-06-01T11:33:46.571Z,1.95
2019-06-01T11:36:18.674Z,2.00
2019-06-01T11:38:50.943Z,1.70
2019-06-01T11:41:23.211Z,2.00
2019-06-01T11:43:55.389Z,1.70
2019-06-01T11:46:27.509Z,2.05
2019-06-01T11:48:59.626Z,1.80
2019-06-01T11:51:31.727Z,1.62
2019-06-01T11:54:03.952Z,2.20
2019-06-01T11:56:37.240Z,2.05
2019-06-01T11:59:09.670Z,1.60
2019-06-01T12:01:41.820Z,2.05
2019-06-01T12:04:15.604Z,1.80
2019-06-01T12:06:47.702Z,1.75
2019-06-01T12:09:19.767Z,1.40
2019-06-01T12:11:54.160Z,1.45
2019-06-01T12:14:26.411Z,1.50
2019-06-01T12:16:58.669Z,1.60
2019-06-01T12:19:30.766Z,1.50
2019-06-01T12:22:04.108Z,1.57
2019-06-01T12:24:36.930Z,3.35
2019-06-01T12:27:09.482Z,2.00
2019-06-01T12:29:41.559Z,2.17
2019-06-01T12:32:15.046Z,2.33
2019-06-01T12:34:49.937Z,2.00
2019-06-01T12:37:40.094Z,1.70
2019-06-01T12:39:58.454Z,1.92
2019-06-01T12:42:31.123Z,2.40
2019-06-01T12:45:03.431Z,2.00
2019-06-01T12:47:35.881Z,2.10
2019-06-01T12:50:08.350Z,2.22
2019-06-01T12:52:42.459Z,1.70
2019-06-01T12:55:24.833Z,2.20
2019-06-01T12:58:00.308Z,1.50
2019-06-01T13:00:32.781Z,1.57
2019-06-01T13:03:09.371Z,2.08
2019-06-01T13:05:43.667Z,1.82
2019-06-01T13:08:16.027Z,1.77
2019-06-01T13:10:48.326Z,1.50
2019-06-01T13:13:23.113Z,1.60
2019-06-01T13:15:55.394Z,1.45
2019-06-01T13:18:29.132Z,2.00
2019-06-01T13:21:01.569Z,1.90
2019-06-01T13:24:11.423Z,2.22
2019-06-01T13:26:24.676Z,2.05
2019-06-01T13:29:01.456Z,2.20
2019-06-01T13:31:33.767Z,2.92
2019-06-01T13:34:11.885Z,1.80
2019-06-01T13:36:44.635Z,1.82
2019-06-01T13:39:21.054Z,1.67
2019-06-01T13:41:54.839Z,1.67
2019-06-01T13:44:28.858Z,1.90
2019-06-01T13:47:02.246Z,1.37
2019-06-01T13:49:38.977Z,1.40
2019-06-01T13:52:11.342Z,1.30
2019-06-01T13:54:46.427Z,1.45
2019-06-01T13:57:19.112Z,1.30
2019-06-01T13:59:52.992Z,1.30
2019-06-01T14:02:30.004Z,1.20
2019-06-01T14:05:02.326Z,0.80
2019-06-01T14:07:34.966Z,1.47
2019-06-01T14:10:08.743Z,1.42
2019-06-01T14:12:42.247Z,1.10
2019-06-01T14:15:20.555Z,1.00
2019-06-01T14:17:52.644Z,0.82
2019-06-01T14:20:25.881Z,0.95
2019-06-01T14:22:58.076Z,1.15
2019-06-01T14:25:31.800Z,0.65
2019-06-01T14:28:03.940Z,1.05
2019-06-01T14:30:43.191Z,0.80
2019-06-01T14:33:13.360Z,1.10
2019-06-01T14:35:48.398Z,1.37
2019-06-01T14:38:21.060Z,1.00
2019-06-01T14:40:53.662Z,1.12
2019-06-01T14:43:26.064Z,0.70
2019-06-01T14:45:58.593Z,1.30
2019-06-01T14:48:30.870Z,0.72
2019-06-01T14:51:03.141Z,1.07
2019-06-01T14:53:36.976Z,1.10
2019-06-01T14:56:09.855Z,0.90
2019-06-01T14:58:44.446Z,0.90
2019-06-01T15:01:31.473Z,0.78
2019-06-01T15:03:50.770Z,0.82
2019-06-01T15:06:25.208Z,1.10
2019-06-01T15:09:15.797Z,1.15
2019-06-01T15:11:36.426Z,1.00
2019-06-01T15:14:11.619Z,0.60
2019-06-01T15:16:44.981Z,0.82
2019-06-01T15:19:17.230Z,0.98
2019-06-01T15:21:52.111Z,0.93
2019-06-01T15:24:23.238Z,0.60
2019-06-01T15:26:55.415Z,1.00
2019-06-01T15:29:28.867Z,0.90
2019-06-01T15:32:02.307Z,0.70
2019-06-01T15:34:37.029Z,0.78
2019-06-01T15:37:12.604Z,1.25
2019-06-01T15:39:44.962Z,0.90
2019-06-01T15:42:17.350Z,1.00
2019-06-01T15:44:49.589Z,0.88
2019-06-01T15:47:22.867Z,0.90
2019-06-01T15:49:55.758Z,0.60
2019-06-01T15:52:28.074Z,0.98
2019-06-01T15:55:02.866Z,0.90
2019-06-01T15:57:36.368Z,0.80
2019-06-01T16:00:10.098Z,0.90
2019-06-01T16:02:42.601Z,0.70
2019-06-01T16:05:16.196Z,0.75
2019-06-01T16:07:48.352Z,1.25
2019-06-01T16:10:20.526Z,1.00
2019-06-01T16:12:53.372Z,0.70
2019-06-01T16:15:25.900Z,0.70
2019-06-01T16:18:00.098Z,0.85
2019-06-01T16:20:33.460Z,0.57
2019-06-01T16:23:05.764Z,0.57
2019-06-01T16:25:40.642Z,0.80
2019-06-01T16:28:12.961Z,0.60
2019-06-01T16:31:04.813Z,0.60
2019-06-01T16:33:54.483Z,0.50
2019-06-01T16:39:58.825Z,0.60
2019-06-01T16:42:38.037Z,0.60
2019-06-01T16:45:22.227Z,0.50
2019-06-01T16:48:00.166Z,0.60
2019-06-01T16:50:36.683Z,0.70
2019-06-01T16:53:23.521Z,0.72
2019-06-01T16:55:59.870Z,0.70
2019-06-01T16:58:38.199Z,0.53
2019-06-01T17:01:42.238Z,0.70
2019-06-01T17:04:41.630Z,0.80
2019-06-01T17:07:24.601Z,0.50
2019-06-01T17:10:26.889Z,0.60
2019-06-01T17:13:16.354Z,0.70
2019-06-01T17:15:49.095Z,0.50
2019-06-01T17:18:21.152Z,0.70
2019-06-01T17:20:53.564Z,0.60
2019-06-01T17:23:32.123Z,0.47
2019-06-01T17:26:02.099Z,0.60
2019-06-01T17:28:34.186Z,0.60
2019-06-01T17:31:06.426Z,0.80
2019-06-01T17:33:38.507Z,0.70
2019-06-01T17:36:11.726Z,1.50
2019-06-01T17:38:43.910Z,0.93
2019-06-01T17:41:15.851Z,0.70
2019-06-01T17:43:49.248Z,0.80
2019-06-01T17:46:22.440Z,0.93
2019-06-01T17:48:55.452Z,0.70
2019-06-01T17:51:27.464Z,0.85
2019-06-01T17:53:59.751Z,0.90
2019-06-01T17:56:32.787Z,1.20
2019-06-01T17:59:05.411Z,0.98
2019-06-01T18:01:37.453Z,1.10
2019-06-01T18:04:12.123Z,1.07
2019-06-01T18:06:44.259Z,1.12
2019-06-01T18:09:16.283Z,1.22
2019-06-01T18:11:48.198Z,0.80
2019-06-01T18:14:21.019Z,1.00
2019-06-01T18:16:53.063Z,0.93
2019-06-01T18:19:25.015Z,0.95
2019-06-01T18:21:57.330Z,1.10
2019-06-01T18:24:29.382Z,1.10
2019-06-01T18:27:02.359Z,1.00
2019-06-01T18:29:39.312Z,0.93
2019-06-01T18:32:11.960Z,0.82
2019-06-01T18:34:45.685Z,1.10
2019-06-01T18:37:17.748Z,1.05
2019-06-01T18:39:49.809Z,1.12
2019-06-01T18:42:27.650Z,1.20
2019-06-01T18:45:00.909Z,1.25
2019-06-01T18:47:33.298Z,1.20
2019-06-01T18:50:06.094Z,1.15
2019-06-01T18:52:38.341Z,1.37
2019-06-01T18:55:12.659Z,1.40
2019-06-01T18:57:48.143Z,1.45
2019-06-01T19:00:20.518Z,1.30
2019-06-01T19:02:53.955Z,1.72
2019-06-01T19:05:27.230Z,2.00
2019-06-01T19:07:59.374Z,1.37
2019-06-01T19:10:33.696Z,1.67
2019-06-01T19:13:07.554Z,1.80
2019-06-01T19:15:39.690Z,1.70
2019-06-01T19:18:14.638Z,1.72
2019-06-01T19:20:47.383Z,1.85
2019-06-01T19:23:22.630Z,1.80
2019-06-01T19:25:54.526Z,1.70
2019-06-01T19:28:26.656Z,1.65
2019-06-01T19:30:59.794Z,1.37
2019-06-01T19:33:34.894Z,1.80
2019-06-01T19:36:07.073Z,1.35
2019-06-01T19:38:42.167Z,2.10
2019-06-01T19:41:15.368Z,1.57
2019-06-01T19:43:49.952Z,1.70
2019-06-01T19:46:23.178Z,1.40
2019-06-01T19:48:57.067Z,1.87
2019-06-01T19:51:32.287Z,1.30
2019-06-01T19:54:04.995Z,3.50
2019-06-01T19:56:37.052Z,3.20
2019-06-01T19:59:09.883Z,2.00
2019-06-01T20:01:42.123Z,9.63
2019-06-01T20:04:14.404Z,9.15
2019-06-01T20:06:48.015Z,2.98
2019-06-01T20:09:21.220Z,1.77
2019-06-01T20:12:01.821Z,1.70
2019-06-01T20:14:28.463Z,2.12
2019-06-01T20:17:02.056Z,1.80
2019-06-01T20:19:49.110Z,1.50
2019-06-01T20:22:21.585Z,1.90
2019-06-01T20:24:53.613Z,1.92
2019-06-01T20:27:27.406Z,1.80
2019-06-01T20:29:59.540Z,1.57
2019-06-01T20:32:31.810Z,2.33
2019-06-01T20:35:06.232Z,1.82
2019-06-01T20:38:02.515Z,1.92
2019-06-01T20:40:34.886Z,2.22
2019-06-01T20:43:08.640Z,2.02
2019-06-01T20:45:40.654Z,1.60
2019-06-01T20:48:15.102Z,1.90
2019-06-01T20:50:51.690Z,1.80
2019-06-01T20:53:23.920Z,1.67
2019-06-01T20:56:00.690Z,2.15
2019-06-01T20:58:32.663Z,2.20
2019-06-01T21:01:04.818Z,2.50
2019-06-01T21:03:36.835Z,2.20
2019-06-01T21:06:09.570Z,2.37
2019-06-01T21:08:43.518Z,2.27
2019-06-01T21:11:15.870Z,2.15
2019-06-01T21:13:48.231Z,2.10
2019-06-01T21:16:22.400Z,2.12
2019-06-01T21:18:57.781Z,1.67
2019-06-01T21:21:29.856Z,2.17
2019-06-01T21:24:01.948Z,1.90
2019-06-01T21:26:36.776Z,2.55
2019-06-01T21:29:10.999Z,2.25
2019-06-01T21:31:52.129Z,2.05
2019-06-01T21:34:26.287Z,1.62
2019-06-01T21:37:00.072Z,1.98
2019-06-01T21:39:32.400Z,2.30
2019-06-01T21:42:07.166Z,2.08
2019-06-01T21:44:42.406Z,2.30
2019-06-01T21:47:21.709Z,2.70
2019-06-01T21:49:55.489Z,2.55
2019-06-01T21:52:27.966Z,2.27
2019-06-01T21:55:01.626Z,2.22
2019-06-01T21:57:33.677Z,2.65
2019-06-01T22:00:08.482Z,2.60
2019-06-01T22:02:46.845Z,2.27
2019-06-01T22:05:19.399Z,2.02
2019-06-01T22:07:51.582Z,2.10
2019-06-01T22:10:25.798Z,2.50
2019-06-01T22:12:58.069Z,2.00
2019-06-01T22:15:30.214Z,2.10
2019-06-01T22:18:02.798Z,2.12
2019-06-01T22:20:35.485Z,2.42
2019-06-01T22:23:11.464Z,2.40
2019-06-01T22:25:41.360Z,2.00
2019-06-01T22:28:13.434Z,2.08
2019-06-01T22:30:45.976Z,2.33
2019-06-01T22:33:20.072Z,2.15
2019-06-01T22:35:52.412Z,2.37
2019-06-01T22:38:27.852Z,2.10
2019-06-01T22:41:00.454Z,1.82
2019-06-01T22:43:46.216Z,2.87
2019-06-01T22:46:12.270Z,2.00
2019-06-01T22:48:44.684Z,2.15
2019-06-01T22:51:17.494Z,2.50
2019-06-01T22:53:49.824Z,2.25
2019-06-01T22:56:23.291Z,1.50
2019-06-01T22:58:55.510Z,1.85
2019-06-01T23:01:29.534Z,1.70
2019-06-01T23:04:03.853Z,1.95
2019-06-01T23:06:36.957Z,2.05
2019-06-01T23:09:12.476Z,2.05
2019-06-01T23:11:45.035Z,2.27
2019-06-01T23:14:18.725Z,2.45
2019-06-01T23:17:02.575Z,2.58
2019-06-01T23:19:36.420Z,2.35
2019-06-01T23:22:10.422Z,2.12
2019-06-01T23:24:44.155Z,2.15
2019-06-01T23:27:16.675Z,2.27
2019-06-01T23:29:49.036Z,1.98
2019-06-01T23:32:22.776Z,2.20
2019-06-01T23:34:54.999Z,2.30
2019-06-01T23:37:29.264Z,2.35
2019-06-01T23:40:01.711Z,2.15
2019-06-01T23:42:37.297Z,3.47
2019-06-01T23:45:11.940Z,2.83
2019-06-01T23:47:44.369Z,3.77
2019-06-01T23:50:17.061Z,3.15
2019-06-01T23:52:49.724Z,3.70
2019-06-01T23:55:26.349Z,3.33
2019-06-01T23:57:59.930Z,3.35
